createdAt,value
2019-06-15T00:01:47.861Z,43.69
2019-06-15T00:04:16.835Z,42.42
2019-06-15T00:06:45.809Z,44.17
2019-06-15T00:09:15.339Z,43.24
2019-06-15T00:11:44.317Z,45.79
2019-06-15T00:14:13.218Z,46.50
2019-06-15T00:16:42.092Z,45.71
2019-06-15T00:19:11.046Z,47.43
2019-06-15T00:21:39.951Z,47.95
2019-06-15T00:24:08.831Z,47.41
2019-06-15T00:26:38.008Z,46.17
2019-06-15T00:29:07.005Z,46.54
2019-06-15T00:31:36.074Z,47.21
2019-06-15T00:34:05.060Z,46.88
2019-06-15T00:36:34.721Z,46.97
2019-06-15T00:39:04.002Z,49.40
2019-06-15T00:41:32.873Z,50.19
2019-06-15T00:44:01.806Z,51.29
2019-06-15T00:46:30.803Z,50.56
2019-06-15T00:48:59.775Z,48.22
2019-06-15T00:51:28.762Z,47.90
2019-06-15T00:53:57.804Z,47.19
2019-06-15T00:56:26.642Z,48.06
2019-06-15T00:58:55.548Z,49.32
2019-06-15T01:01:24.777Z,50.34
2019-06-15T01:03:55.206Z,50.06
2019-06-15T01:06:24.252Z,48.36
2019-06-15T01:08:53.139Z,48.21
2019-06-15T01:11:22.105Z,48.83
2019-06-15T01:13:51.082Z,48.38
2019-06-15T01:16:19.942Z,49.32
2019-06-15T01:18:48.913Z,49.46
2019-06-15T01:21:18.213Z,48.66
2019-06-15T01:23:47.395Z,48.40
2019-06-15T01:26:16.304Z,48.79
2019-06-15T01:28:45.196Z,48.68
2019-06-15T01:31:14.114Z,49.37
2019-06-15T01:33:43.090Z,50.10
2019-06-15T01:36:11.991Z,51.62
2019-06-15T01:38:40.967Z,50.04
2019-06-15T01:41:09.936Z,49.82
2019-06-15T01:43:38.829Z,49.61
2019-06-15T01:46:07.787Z,48.84
2019-06-15T01:48:36.741Z,50.33
2019-06-15T01:51:05.704Z,48.64
2019-06-15T01:53:34.606Z,49.45
2019-06-15T01:56:03.616Z,49.54
2019-06-15T01:58:32.804Z,49.31
2019-06-15T02:01:01.771Z,49.36
2019-06-15T02:03:30.764Z,48.71
2019-06-15T02:05:59.707Z,49.34
2019-06-15T02:08:28.613Z,48.92
2019-06-15T02:10:57.867Z,48.85
2019-06-15T02:13:26.766Z,48.72
2019-06-15T02:15:55.652Z,50.01
2019-06-15T02:18:24.647Z,50.01
2019-06-15T02:20:54.164Z,49.71
2019-06-15T02:23:23.068Z,50.21
2019-06-15T02:25:52.366Z,50.23
2019-06-15T02:28:21.603Z,50.11
2019-06-15T02:30:50.551Z,48.92
2019-06-15T02:33:19.545Z,48.81
2019-06-15T02:35:48.495Z,48.42
2019-06-15T02:38:17.788Z,49.96
2019-06-15T02:40:46.695Z,49.17
2019-06-15T02:43:15.966Z,50.68
2019-06-15T02:45:44.927Z,50.00
2019-06-15T02:48:13.914Z,49.08
2019-06-15T02:50:43.192Z,49.92
2019-06-15T02:53:12.070Z,48.56
2019-06-15T02:55:50.278Z,48.86
2019-06-15T02:58:11.670Z,50.20
2019-06-15T03:00:47.929Z,49.06
2019-06-15T03:03:16.952Z,48.79
2019-06-15T03:05:46.068Z,48.97
2019-06-15T03:08:15.033Z,48.77
2019-06-15T03:10:43.988Z,48.43
2019-06-15T03:13:13.713Z,49.90
2019-06-15T03:15:42.682Z,48.91
2019-06-15T03:18:11.645Z,49.40
2019-06-15T03:20:40.595Z,49.66
2019-06-15T03:23:09.795Z,50.10
2019-06-15T03:25:38.787Z,51.21
2019-06-15T03:28:07.750Z,49.87
2019-06-15T03:30:36.651Z,49.95
2019-06-15T03:33:06.209Z,49.36
2019-06-15T03:35:35.156Z,50.26
2019-06-15T03:38:04.166Z,50.37
2019-06-15T03:40:33.059Z,49.70
2019-06-15T03:43:02.039Z,50.91
2019-06-15T03:45:30.922Z,49.24
2019-06-15T03:47:59.915Z,48.87
2019-06-15T03:50:29.119Z,49.12
2019-06-15T03:52:58.072Z,49.80
2019-06-15T03:55:27.237Z,48.58
2019-06-15T03:57:56.196Z,49.39
2019-06-15T04:01:00.360Z,47.90
2019-06-15T04:03:29.245Z,48.74
2019-06-15T04:05:58.502Z,48.07
2019-06-15T04:08:27.395Z,48.55
2019-06-15T04:10:56.309Z,47.68
2019-06-15T04:13:25.213Z,48.73
2019-06-15T04:15:54.194Z,49.23
2019-06-15T04:18:23.191Z,48.00
2019-06-15T04:20:52.175Z,48.91
2019-06-15T04:23:21.342Z,47.24
2019-06-15T04:25:50.468Z,46.92
2019-06-15T04:28:19.367Z,45.81
2019-06-15T04:30:48.363Z,46.54
2019-06-15T04:33:17.256Z,47.99
2019-06-15T04:35:46.233Z,45.73
2019-06-15T04:38:15.240Z,45.58
2019-06-15T04:40:44.181Z,46.53
2019-06-15T04:43:14.070Z,45.01
2019-06-15T04:45:43.368Z,45.30
2019-06-15T04:48:12.245Z,44.19
2019-06-15T04:50:41.221Z,44.10
2019-06-15T04:53:10.111Z,44.78
2019-06-15T04:55:39.124Z,45.23
2019-06-15T04:58:07.988Z,45.26
2019-06-15T05:00:36.901Z,45.55
2019-06-15T05:03:05.922Z,43.89
2019-06-15T05:05:34.917Z,44.05
2019-06-15T05:08:03.891Z,43.75
2019-06-15T05:10:32.848Z,44.39
2019-06-15T05:13:02.102Z,42.62
2019-06-15T05:15:30.977Z,42.64
2019-06-15T05:17:59.921Z,41.96
2019-06-15T05:20:28.907Z,40.69
2019-06-15T05:22:57.869Z,38.71
2019-06-15T05:25:26.826Z,38.92
2019-06-15T05:27:55.740Z,39.06
2019-06-15T05:30:24.696Z,39.21
2019-06-15T05:32:53.607Z,40.25
2019-06-15T05:35:23.659Z,40.66
2019-06-15T05:37:52.656Z,41.11
2019-06-15T05:40:21.591Z,41.63
2019-06-15T05:42:50.875Z,41.23
2019-06-15T05:45:19.841Z,41.58
2019-06-15T05:47:49.098Z,41.43
2019-06-15T05:50:18.081Z,43.38
2019-06-15T05:52:46.969Z,41.46
2019-06-15T05:55:15.996Z,40.89
2019-06-15T05:57:44.928Z,40.84
2019-06-15T06:00:14.021Z,41.71
2019-06-15T06:02:43.044Z,41.42
2019-06-15T06:05:12.147Z,43.16
2019-06-15T06:07:41.587Z,42.19
2019-06-15T06:10:11.198Z,39.18
2019-06-15T06:12:40.322Z,37.59
2019-06-15T06:15:09.783Z,37.68
2019-06-15T06:17:38.777Z,36.21
2019-06-15T06:20:08.186Z,35.76
2019-06-15T06:22:37.185Z,34.97
2019-06-15T06:25:07.153Z,35.08
2019-06-15T06:27:36.952Z,35.31
2019-06-15T06:30:07.067Z,35.24
2019-06-15T06:32:36.049Z,35.40
2019-06-15T06:35:06.460Z,34.86
2019-06-15T06:37:35.453Z,34.86
2019-06-15T06:40:05.257Z,33.07
2019-06-15T06:42:34.131Z,32.13
2019-06-15T06:45:03.471Z,30.41
2019-06-15T06:47:32.349Z,30.13
2019-06-15T06:50:01.375Z,30.26
2019-06-15T06:52:30.319Z,32.60
2019-06-15T06:54:59.325Z,30.32
2019-06-15T06:57:28.220Z,31.44
2019-06-15T06:59:57.203Z,32.22
2019-06-15T07:02:26.242Z,32.27
2019-06-15T07:04:55.139Z,31.57
2019-06-15T07:07:24.272Z,30.13
2019-06-15T07:09:53.183Z,30.87
2019-06-15T07:12:22.409Z,30.17
2019-06-15T07:14:51.389Z,31.58
2019-06-15T07:17:20.404Z,35.87
2019-06-15T07:19:49.308Z,35.22
2019-06-15T07:22:18.596Z,37.75
2019-06-15T07:24:47.526Z,41.05
2019-06-15T07:27:16.499Z,41.98
2019-06-15T07:29:45.649Z,44.37
2019-06-15T07:32:14.662Z,43.43
2019-06-15T07:34:43.606Z,44.53
2019-06-15T07:37:12.492Z,43.25
2019-06-15T07:39:41.470Z,47.00
2019-06-15T07:42:10.459Z,46.58
2019-06-15T07:44:39.368Z,46.54
2019-06-15T07:47:08.358Z,45.13
2019-06-15T07:49:37.339Z,45.16
2019-06-15T07:52:06.328Z,46.44
2019-06-15T07:54:36.293Z,46.44
2019-06-15T07:57:05.254Z,47.59
2019-06-15T07:59:34.226Z,48.22
2019-06-15T08:02:03.267Z,46.65
2019-06-15T08:04:32.218Z,46.63
2019-06-15T08:07:01.099Z,45.52
2019-06-15T08:09:30.118Z,46.54
2019-06-15T08:11:59.365Z,45.63
2019-06-15T08:14:28.349Z,47.08
2019-06-15T08:16:57.250Z,46.06
2019-06-15T08:19:26.211Z,46.10
2019-06-15T08:21:55.206Z,45.80
2019-06-15T08:24:24.081Z,51.81
2019-06-15T08:26:53.061Z,50.72
2019-06-15T08:29:22.063Z,49.14
2019-06-15T08:31:51.308Z,47.28
2019-06-15T08:34:20.263Z,45.56
2019-06-15T08:36:49.216Z,44.22
2019-06-15T08:39:18.135Z,43.21
2019-06-15T08:41:47.092Z,44.50
2019-06-15T08:44:16.499Z,42.57
2019-06-15T08:46:45.521Z,39.73
2019-06-15T08:49:14.693Z,37.23
2019-06-15T08:51:43.716Z,34.87
2019-06-15T08:54:12.693Z,33.99
2019-06-15T08:56:41.667Z,35.47
2019-06-15T08:59:10.702Z,37.97
2019-06-15T09:01:39.706Z,37.88
2019-06-15T09:04:08.693Z,41.42
2019-06-15T09:06:37.740Z,43.21
2019-06-15T09:09:07.719Z,39.62
2019-06-15T09:11:36.680Z,38.92
2019-06-15T09:14:05.708Z,36.55
2019-06-15T09:16:34.640Z,34.98
2019-06-15T09:19:03.630Z,37.45
2019-06-15T09:21:32.523Z,39.51
2019-06-15T09:24:01.577Z,42.08
2019-06-15T09:26:30.573Z,42.44
2019-06-15T09:29:10.806Z,38.88
2019-06-15T09:31:30.301Z,38.47
2019-06-15T09:33:59.300Z,39.35
2019-06-15T09:36:28.229Z,37.70
2019-06-15T09:38:57.133Z,35.87
2019-06-15T09:41:26.111Z,34.38
2019-06-15T09:43:55.297Z,33.18
2019-06-15T09:46:24.255Z,34.45
2019-06-15T09:48:53.490Z,33.99
2019-06-15T09:51:22.455Z,35.41
2019-06-15T09:53:51.456Z,36.24
2019-06-15T09:56:20.442Z,37.17
2019-06-15T09:58:49.467Z,38.81
2019-06-15T10:01:18.758Z,39.85
2019-06-15T10:03:47.658Z,37.70
2019-06-15T10:06:16.638Z,35.58
2019-06-15T10:08:45.613Z,34.61
2019-06-15T10:11:14.709Z,30.20
2019-06-15T10:13:43.725Z,28.77
2019-06-15T10:16:12.723Z,29.45
2019-06-15T10:18:41.703Z,28.62
2019-06-15T10:21:10.679Z,29.74
2019-06-15T10:23:39.669Z,32.73
2019-06-15T10:26:08.694Z,34.62
2019-06-15T10:28:37.691Z,35.63
2019-06-15T10:31:06.685Z,36.99
2019-06-15T10:33:35.688Z,36.13
2019-06-15T10:36:04.981Z,34.63
2019-06-15T10:38:33.978Z,34.26
2019-06-15T10:41:02.936Z,34.60
2019-06-15T10:43:31.922Z,33.97
2019-06-15T10:46:00.806Z,35.52
2019-06-15T10:48:30.130Z,33.21
2019-06-15T10:50:59.125Z,31.69
2019-06-15T10:53:28.092Z,28.45
2019-06-15T10:55:57.013Z,28.91
2019-06-15T10:58:25.924Z,29.59
2019-06-15T11:00:54.842Z,28.65
2019-06-15T11:03:23.802Z,29.98
2019-06-15T11:05:54.922Z,30.94
2019-06-15T11:08:23.924Z,32.70
2019-06-15T11:11:21.645Z,33.64
2019-06-15T11:13:50.275Z,36.32
2019-06-15T11:16:19.424Z,38.02
2019-06-15T11:18:48.613Z,38.15
2019-06-15T11:21:17.586Z,37.30
2019-06-15T11:23:46.610Z,38.81
2019-06-15T11:26:15.543Z,37.83
2019-06-15T11:28:44.516Z,38.65
2019-06-15T11:31:13.496Z,41.98
2019-06-15T11:33:42.465Z,41.66
2019-06-15T11:36:11.431Z,40.78
2019-06-15T11:38:40.653Z,41.52
2019-06-15T11:41:09.654Z,40.49
2019-06-15T11:43:38.540Z,38.56
2019-06-15T11:46:07.761Z,37.59
2019-06-15T11:48:36.724Z,35.81
2019-06-15T11:51:05.613Z,36.50
2019-06-15T11:53:34.576Z,35.44
2019-06-15T11:56:03.547Z,36.13
2019-06-15T11:58:32.738Z,38.00
2019-06-15T12:01:01.754Z,37.42
2019-06-15T12:03:30.644Z,37.18
2019-06-15T12:05:59.566Z,37.18
2019-06-15T12:08:28.501Z,36.04
2019-06-15T12:10:57.396Z,36.02
2019-06-15T12:13:26.370Z,35.79
2019-06-15T12:15:55.586Z,35.43
2019-06-15T12:18:24.505Z,34.27
2019-06-15T12:20:53.645Z,33.80
2019-06-15T12:23:22.591Z,34.65
2019-06-15T12:25:51.487Z,34.72
2019-06-15T12:28:20.395Z,35.17
2019-06-15T12:30:49.632Z,34.01
2019-06-15T12:33:18.631Z,34.52
2019-06-15T12:35:47.622Z,33.62
2019-06-15T12:38:16.779Z,34.56
2019-06-15T12:40:45.761Z,34.32
2019-06-15T12:43:15.317Z,35.19
2019-06-15T12:45:44.278Z,35.03
2019-06-15T12:48:13.202Z,35.28
2019-06-15T12:50:42.184Z,35.16
2019-06-15T12:53:11.115Z,37.26
2019-06-15T12:55:40.390Z,35.70
2019-06-15T12:58:09.421Z,36.99
2019-06-15T13:00:38.694Z,36.56
2019-06-15T13:03:07.678Z,37.99
2019-06-15T13:05:36.619Z,34.97
2019-06-15T13:08:05.710Z,33.65
2019-06-15T13:10:34.939Z,32.38
2019-06-15T13:13:03.992Z,32.83
2019-06-15T13:15:32.973Z,35.10
2019-06-15T13:18:01.958Z,33.87
2019-06-15T13:20:31.068Z,34.54
2019-06-15T13:23:00.638Z,33.27
2019-06-15T13:25:29.638Z,33.19
2019-06-15T13:27:58.912Z,33.01
2019-06-15T13:30:27.914Z,32.12
2019-06-15T13:32:57.074Z,32.24
2019-06-15T13:35:26.094Z,32.84
2019-06-15T13:54:24.028Z,35.15
2019-06-15T13:56:53.380Z,35.15
2019-06-15T13:59:22.389Z,35.59
2019-06-15T14:01:51.320Z,34.21
2019-06-15T14:04:20.307Z,34.62
2019-06-15T14:06:49.201Z,33.25
2019-06-15T14:09:18.138Z,33.32
2019-06-15T14:11:47.062Z,33.96
2019-06-15T14:14:16.085Z,33.41
2019-06-15T14:16:45.024Z,35.72
2019-06-15T14:19:14.321Z,33.49
2019-06-15T14:21:43.266Z,33.79
2019-06-15T14:24:12.298Z,35.07
2019-06-15T14:26:41.212Z,34.66
2019-06-15T14:29:10.312Z,33.52
2019-06-15T14:31:49.664Z,33.56
2019-06-15T14:34:10.248Z,33.70
2019-06-15T14:36:39.235Z,35.04
2019-06-15T14:39:08.253Z,34.30
2019-06-15T14:41:37.153Z,34.69
2019-06-15T14:44:06.410Z,35.53
2019-06-15T14:46:36.304Z,33.54
2019-06-15T14:49:05.272Z,33.94
2019-06-15T14:54:08.768Z,32.35
2019-06-15T14:56:37.684Z,32.16
2019-06-15T14:59:06.665Z,33.55
2019-06-15T15:01:35.664Z,32.83
2019-06-15T15:04:06.269Z,33.13
2019-06-15T15:06:36.884Z,33.43
2019-06-15T15:09:07.100Z,33.48
2019-06-15T15:11:36.711Z,33.51
2019-06-15T15:14:06.681Z,33.08
2019-06-15T15:16:35.723Z,33.62
2019-06-15T15:19:06.102Z,32.24
2019-06-15T15:21:37.129Z,31.92
2019-06-15T15:24:06.924Z,32.66
2019-06-15T15:26:37.050Z,31.12
2019-06-15T15:29:06.985Z,33.24
2019-06-15T15:31:36.337Z,32.85
2019-06-15T15:34:07.898Z,32.06
2019-06-15T15:36:36.850Z,32.65
2019-06-15T15:39:10.070Z,34.74
2019-06-15T15:41:37.363Z,33.44
2019-06-15T15:44:06.376Z,34.36
2019-06-15T15:46:35.610Z,34.53
2019-06-15T15:49:06.903Z,33.83
2019-06-15T15:51:36.878Z,33.69
2019-06-15T15:54:07.216Z,35.00
2019-06-15T15:56:36.351Z,33.74
2019-06-15T15:59:06.816Z,34.11
2019-06-15T16:01:37.039Z,34.59
2019-06-15T16:04:06.404Z,32.18
2019-06-15T16:06:36.274Z,32.24
2019-06-15T16:09:06.354Z,31.72
2019-06-15T16:11:37.102Z,33.36
2019-06-15T16:14:07.191Z,33.46
2019-06-15T16:16:36.697Z,32.97
2019-06-15T16:19:06.560Z,33.23
2019-06-15T16:21:36.687Z,33.42
2019-06-15T16:24:07.343Z,35.13
2019-06-15T16:26:37.564Z,33.35
2019-06-15T16:29:07.045Z,33.72
2019-06-15T16:31:37.444Z,34.04
2019-06-15T16:34:06.554Z,34.57
2019-06-15T16:36:36.528Z,32.24
2019-06-15T16:39:06.721Z,33.31
2019-06-15T16:41:36.417Z,32.18
2019-06-15T16:44:07.084Z,33.39
2019-06-15T16:46:36.870Z,33.29
2019-06-15T16:49:06.270Z,33.98
2019-06-15T16:51:36.113Z,33.68
2019-06-15T16:54:06.303Z,33.36
2019-06-15T16:56:36.196Z,33.09
2019-06-15T16:59:06.577Z,32.09
2019-06-15T17:01:35.784Z,33.00
2019-06-15T17:04:06.122Z,31.74
2019-06-15T17:06:37.664Z,31.62
2019-06-15T17:09:06.996Z,31.92
2019-06-15T17:11:36.712Z,33.12
2019-06-15T17:14:06.887Z,32.85
2019-06-15T17:16:36.778Z,33.05
2019-06-15T17:19:07.099Z,31.83
2019-06-15T17:21:37.264Z,31.57
2019-06-15T17:24:06.818Z,32.96
2019-06-15T17:26:36.621Z,32.69
2019-06-15T17:29:07.352Z,33.37
2019-06-15T17:31:37.474Z,33.33
2019-06-15T17:34:07.281Z,32.89
2019-06-15T17:36:36.956Z,33.95
2019-06-15T17:39:07.136Z,33.58
2019-06-15T17:41:36.690Z,33.17
2019-06-15T17:44:06.186Z,33.56
2019-06-15T17:46:35.296Z,33.83
2019-06-15T17:49:06.577Z,35.55
2019-06-15T17:51:36.843Z,35.15
2019-06-15T17:54:06.406Z,34.20
2019-06-15T17:56:36.647Z,33.86
2019-06-15T17:59:06.493Z,33.97
2019-06-15T18:01:36.425Z,35.15
2019-06-15T18:04:07.885Z,33.15
2019-06-15T18:06:36.219Z,34.99
2019-06-15T18:09:06.625Z,34.70
2019-06-15T18:11:37.540Z,33.52
2019-06-15T18:14:06.201Z,35.54
2019-06-15T18:16:36.944Z,33.35
2019-06-15T18:19:06.990Z,31.96
2019-06-15T18:21:40.929Z,33.20
2019-06-15T18:24:06.803Z,34.10
2019-06-15T18:26:36.482Z,32.81
2019-06-15T18:29:05.591Z,32.52
2019-06-15T18:31:36.436Z,32.47
2019-06-15T18:34:10.270Z,32.62
2019-06-15T18:36:36.573Z,33.48
2019-06-15T18:39:07.319Z,32.93
2019-06-15T18:41:37.014Z,34.21
2019-06-15T18:44:06.438Z,34.15
2019-06-15T18:46:36.733Z,32.80
2019-06-15T18:49:06.720Z,32.52
2019-06-15T18:51:35.844Z,32.42
2019-06-15T18:54:06.745Z,32.58
2019-06-15T18:56:36.352Z,32.99
2019-06-15T18:59:07.378Z,32.41
2019-06-15T19:01:37.506Z,33.06
2019-06-15T19:04:06.907Z,32.73
2019-06-15T19:06:37.221Z,33.37
2019-06-15T19:09:08.516Z,33.70
2019-06-15T19:11:37.501Z,33.75
2019-06-15T19:14:06.944Z,33.88
2019-06-15T19:16:37.223Z,34.57
2019-06-15T19:19:09.118Z,33.31
2019-06-15T19:21:36.968Z,34.03
2019-06-15T19:24:07.269Z,33.74
2019-06-15T19:26:37.695Z,36.79
2019-06-15T19:29:06.682Z,37.42
2019-06-15T19:31:36.732Z,37.10
2019-06-15T19:34:06.769Z,36.86
2019-06-15T19:36:36.655Z,37.76
2019-06-15T19:39:07.135Z,38.55
2019-06-15T19:41:38.059Z,38.64
2019-06-15T19:44:07.038Z,38.45
2019-06-15T19:46:36.565Z,38.02
2019-06-15T19:49:06.321Z,38.71
2019-06-15T19:51:36.307Z,38.29
2019-06-15T19:54:06.977Z,38.74
2019-06-15T19:56:37.220Z,39.87
2019-06-15T19:59:06.979Z,39.58
2019-06-15T20:01:36.333Z,39.05
2019-06-15T20:04:06.604Z,39.01
2019-06-15T20:06:37.032Z,37.88
2019-06-15T20:09:09.742Z,39.80
2019-06-15T20:11:38.631Z,39.80
2019-06-15T20:14:07.646Z,38.88
2019-06-15T20:16:36.615Z,39.54
2019-06-15T20:19:06.810Z,39.43
2019-06-15T20:21:37.471Z,41.60
2019-06-15T20:24:06.581Z,39.87
2019-06-15T20:26:36.597Z,41.38
2019-06-15T20:29:07.053Z,39.70
2019-06-15T20:31:37.010Z,40.59
2019-06-15T20:34:06.082Z,40.83
2019-06-15T20:36:36.614Z,42.25
2019-06-15T20:39:07.404Z,42.33
2019-06-15T20:41:36.558Z,41.88
2019-06-15T20:44:05.552Z,42.12
2019-06-15T20:46:36.951Z,43.23
2019-06-15T20:49:06.573Z,42.69
2019-06-15T20:51:37.226Z,42.18
2019-06-15T20:54:07.010Z,41.89
2019-06-15T20:56:37.304Z,42.75
2019-06-15T20:59:06.808Z,43.70
2019-06-15T21:01:36.879Z,42.89
2019-06-15T21:04:07.369Z,41.81
2019-06-15T21:06:37.146Z,42.32
2019-06-15T21:09:07.170Z,43.55
2019-06-15T21:11:36.354Z,44.25
2019-06-15T21:14:05.400Z,44.42
2019-06-15T21:16:36.835Z,43.24
2019-06-15T21:19:06.534Z,43.71
2019-06-15T21:21:37.437Z,45.23
2019-06-15T21:24:06.906Z,45.16
2019-06-15T21:26:35.830Z,44.57
2019-06-15T21:29:06.688Z,43.75
2019-06-15T21:31:36.781Z,45.06
2019-06-15T21:34:07.045Z,45.54
2019-06-15T21:36:37.670Z,45.67
2019-06-15T21:39:07.684Z,45.52
2019-06-15T21:41:36.974Z,44.02
2019-06-15T21:44:06.473Z,43.76
2019-06-15T21:46:36.227Z,46.53
2019-06-15T21:49:07.139Z,43.90
2019-06-15T21:51:36.694Z,44.02
2019-06-15T21:54:07.580Z,46.04
2019-06-15T21:56:41.085Z,45.76
2019-06-15T21:59:16.733Z,47.04
2019-06-15T22:01:49.797Z,46.47
2019-06-15T22:04:25.955Z,45.88
2019-06-15T22:07:06.621Z,44.65
2019-06-15T22:09:40.062Z,45.19
2019-06-15T22:12:09.305Z,44.82
2019-06-15T22:14:52.860Z,45.92
2019-06-15T22:17:22.165Z,44.67
2019-06-15T22:19:52.625Z,46.18
2019-06-15T22:22:29.662Z,45.99
2019-06-15T22:25:01.952Z,47.10
2019-06-15T22:27:42.026Z,47.54
2019-06-15T22:30:12.591Z,46.75
2019-06-15T22:33:07.395Z,46.93
2019-06-15T22:35:43.607Z,46.83
2019-06-15T22:38:21.666Z,45.71
2019-06-15T22:40:51.825Z,46.46
2019-06-15T22:43:20.964Z,46.90
2019-06-15T22:45:50.456Z,47.40
2019-06-15T22:48:19.540Z,47.67
2019-06-15T22:50:49.788Z,47.91
2019-06-15T22:53:18.942Z,46.33
2019-06-15T22:55:48.099Z,48.26
2019-06-15T22:58:24.093Z,45.92
2019-06-15T23:01:06.050Z,47.83
2019-06-15T23:03:46.573Z,48.61
2019-06-15T23:06:16.258Z,48.47
2019-06-15T23:08:56.471Z,48.77
2019-06-15T23:11:26.698Z,46.72
2019-06-15T23:13:57.556Z,48.60
2019-06-15T23:16:27.368Z,48.80
2019-06-15T23:18:57.318Z,47.56
2019-06-15T23:21:26.927Z,46.17
2019-06-15T23:23:56.545Z,47.29
2019-06-15T23:26:25.641Z,48.36
2019-06-15T23:28:56.474Z,47.97
2019-06-15T23:31:27.739Z,48.55
2019-06-15T23:33:56.900Z,48.47
2019-06-15T23:36:51.757Z,49.72
2019-06-15T23:39:07.730Z,49.46
2019-06-15T23:41:36.954Z,46.47
2019-06-15T23:44:16.178Z,45.64
2019-06-15T23:46:46.950Z,46.19
2019-06-15T23:49:16.481Z,48.95
2019-06-15T23:51:46.674Z,48.51
2019-06-15T23:54:16.058Z,49.22
2019-06-15T23:57:27.545Z,49.45
2019-06-15T23:59:56.714Z,49.47
